KASW Airport (Warsaw Muni) Information

FAA: ASW - ICAO: KASW

KASW Airport Location

State Indiana
County Kosciusko
City Warsaw
KASW Airport is 2 miles north of Warsaw, IN.
Latitude 41-16-28.9000N
Longitude 085-50-24.3000W
Elevation 849ft

KASW Airport METARs

METAR KASW 270015Z AUTO 23005KT 10SM OVC095 M02/M10 A3011 RMK AO2
Altimeter 30.11"
Temperature -2.0°C (28.4°F)
Wind 230° at 5KT
Clouds overcast at 9,500ft
Visibility 10.0mi
Time observed: 2021-11-27T00:15:00Z

KASW Airport Details

Status Operational
Activation September 1947
Ownership Public
Usage Public
Chart CHICAGO
ATC on-site No
Beacon schedule sunset-sunrise
Beacon color clear green

KASW Airport Contacts

Owner WARSAW BOAC
Owner address 3000 AIRPORT DR, WARSAW, IN 46582
Owner phone 574-269-1337
Manager N/A
Manager address N/A, N/A
Manager phone N/A

KASW Airport (Warsaw Muni) Radio Frequencies

KASW (Airport) Radio Frequencies

UNICOM 122.7
Common traffic advisory frequency (CTAF) 122.7